Washington, AR (71862)

1:32 AM CST on February 21, 2017 (GMT -0600)
HopePrescott.com Hope Office | | Change Station
Active Advisory: Dense Fog Advisory

Elev 357 ft 33.66 °N, 93.59 °W | Updated 1 second ago

Overcast
Overcast
58.6 °F
Feels Like 58.6 °F
N
0.0
Wind Variable Wind from North
Gusts 0.0 mph

Today
High -- | Low -- °F
--% Chance of Precip.
Yesterday
High -- | Low -- °F
Precip. -- in
Pressure 29.92 in
Visibility 4.0 miles
Clouds Overcast 200 ft
Dew Point 58 °F
Humidity 99%
Rainfall 0.00 in
Snow Depth Not available.
6:52 AM 6:04 PM
Waning Crescent, 27% visible
SPECI KTXK 210715Z AUTO 22005KT 4SM BR OVC002 14/14 A2992 RMK AO2 T01390139
Pressure 29.92 in
Visibility 4.0 miles
Clouds Overcast 200 ft
Dew Point 58 °F
Humidity 99%
Rainfall 0.00 in
Snow Depth Not available.
6:52 AM 6:04 PM
Waning Crescent, 27% visible
SPECI KTXK 210715Z AUTO 22005KT 4SM BR OVC002 14/14 A2992 RMK AO2 T01390139

Get Your Daily Forecast Email!

Thanks for signing up!

Be on the lookout for a verification email in your inbox.

You'll start receiving the daily forecast at 8 AM.

×

10-Day Weather Forecast

Almanac

Astronomy

Feb. 21, 2017 Rise Set
Actual Time
Civil Twilight
Nautical Twilight
Astronomical Twilight
Moon
Length of Visible Light
Length of Day
Tomorrow will be .
, % of the Moon is Illuminated

Today's Extremes

State Highs State Lows

Community

WunderPhotos

Upload Photos

1,962,540 photos uploaded!

WunderBlog® & News

Nearby

Air Quality

  Air Quality AQ Index Pollutant
Not available.

Snow Depth

Station Depth Elevation

Earthquake Activity

City Distance Mag. Time & Date
Minimum magnitude displayed is 2.5.

Coastal Water Temperatures

Place Temperature

Stations

Nearby Weather Stations

Station Location Temp. Windchill Dew Point Humidity Wind Precip. Elev Updated Type
                   

Watches & Warnings

Dense Fog Advisory
Issued: 10:59 PM CST Feb. 20, 2017 – National Weather Service

... Dense fog advisory in effect until 9 am CST Tuesday...

The National Weather Service in Shreveport has issued a dense fog
advisory, which will be in effect until 9 am CST Tuesday.

* Event... dense fog with visibility below one half mile.

* Timing... through 9 am CST Tuesday.

* Impact... changes in visibility on area roadways in low lying
areas, near bodies of water, such as lakes and bayous, and in
short distances will make driving/traveling hazardous.

Precautionary/preparedness actions...

A dense fog advisory means visibilities will frequently be
reduced to less than one quarter mile. If driving, slow down, use
your low beam headlights, and leave plenty of distance between
other vehicles ahead of you. Be alert to bus traffic and their
frequent stops during the morning commute.



06
06